createdAt,value
2019-05-21T00:00:04.334Z,87.36
2019-05-21T00:02:54.479Z,87.38
2019-05-21T00:05:45.192Z,87.30
2019-05-21T00:08:35.036Z,87.37
2019-05-21T00:11:25.166Z,87.19
2019-05-21T00:14:15.051Z,87.10
2019-05-21T00:17:04.904Z,87.17
2019-05-21T00:19:54.734Z,87.16
2019-05-21T00:22:44.701Z,87.04
2019-05-21T00:25:34.723Z,86.99
2019-05-21T00:28:41.386Z,86.84
2019-05-21T00:32:25.466Z,86.82
2019-05-21T00:36:09.644Z,86.89
2019-05-21T00:39:53.817Z,87.02
2019-05-21T00:42:46.338Z,87.17
2019-05-21T00:45:36.195Z,87.18
2019-05-21T00:48:26.053Z,87.08
2019-05-21T00:51:15.922Z,86.99
2019-05-21T00:54:05.521Z,86.82
2019-05-21T00:56:55.374Z,86.77
2019-05-21T00:59:44.925Z,86.77
2019-05-21T01:02:35.053Z,86.82
2019-05-21T01:05:25.228Z,86.79
2019-05-21T01:08:15.519Z,86.67
2019-05-21T01:11:05.771Z,86.59
2019-05-21T01:13:55.801Z,86.39
2019-05-21T01:16:45.987Z,86.50
2019-05-21T01:19:36.117Z,86.54
2019-05-21T01:22:25.853Z,86.66
2019-05-21T01:25:16.110Z,86.61
2019-05-21T01:28:06.530Z,86.68
2019-05-21T01:30:56.426Z,86.70
2019-05-21T01:33:46.312Z,86.63
2019-05-21T01:36:36.413Z,86.61
2019-05-21T01:39:26.542Z,86.66
2019-05-21T01:42:16.403Z,86.57
2019-05-21T01:45:06.922Z,86.69
2019-05-21T01:47:56.658Z,86.64
2019-05-21T01:50:46.552Z,86.64
2019-05-21T01:53:36.695Z,86.61
2019-05-21T01:56:27.117Z,86.57
2019-05-21T01:59:17.329Z,86.52
2019-05-21T02:02:07.520Z,86.51
2019-05-21T02:04:57.398Z,86.52
2019-05-21T02:07:47.458Z,86.40
2019-05-21T02:10:37.562Z,86.33
2019-05-21T02:13:27.558Z,86.33
2019-05-21T02:16:17.568Z,86.37
2019-05-21T02:19:07.180Z,86.38
2019-05-21T02:21:57.583Z,86.40
2019-05-21T02:24:47.558Z,86.30
2019-05-21T02:27:37.319Z,86.28
2019-05-21T02:30:26.969Z,86.36
2019-05-21T02:33:16.882Z,86.30
2019-05-21T02:36:07.366Z,86.32
2019-05-21T02:38:57.024Z,86.35
2019-05-21T02:41:46.516Z,86.25
2019-05-21T02:44:36.845Z,86.26
2019-05-21T02:47:27.010Z,86.24
2019-05-21T02:50:17.245Z,86.12
2019-05-21T02:53:07.218Z,86.15
2019-05-21T02:55:57.271Z,86.16
2019-05-21T02:58:47.493Z,86.23
2019-05-21T03:01:43.474Z,86.13
2019-05-21T03:04:33.388Z,86.10
2019-05-21T03:07:25.692Z,86.13
2019-05-21T03:10:14.569Z,86.08
2019-05-21T03:13:04.496Z,86.10
2019-05-21T03:15:54.606Z,86.11
2019-05-21T03:18:44.836Z,86.01
2019-05-21T03:21:34.494Z,85.96
2019-05-21T03:24:25.533Z,86.02
2019-05-21T03:27:15.441Z,86.05
2019-05-21T03:30:05.373Z,86.04
2019-05-21T03:32:55.546Z,86.03
2019-05-21T03:35:45.697Z,86.02
2019-05-21T03:38:35.594Z,86.09
2019-05-21T03:41:25.097Z,86.20
2019-05-21T03:44:15.814Z,86.09
2019-05-21T03:47:05.859Z,86.09
2019-05-21T03:49:56.041Z,86.08
2019-05-21T03:52:46.052Z,86.04
2019-05-21T03:55:35.934Z,86.02
2019-05-21T03:58:25.551Z,86.06
2019-05-21T04:01:19.397Z,86.14
2019-05-21T04:04:18.672Z,86.11
2019-05-21T04:07:09.382Z,86.14
2019-05-21T04:09:59.267Z,86.14
2019-05-21T04:13:07.274Z,86.13
2019-05-21T04:16:22.384Z,86.22
2019-05-21T04:19:19.411Z,86.21
2019-05-21T04:22:16.787Z,86.26
2019-05-21T04:25:06.863Z,86.32
2019-05-21T04:27:56.484Z,86.36
2019-05-21T04:30:46.535Z,86.38
2019-05-21T04:33:36.485Z,86.43
2019-05-21T04:36:26.392Z,86.48
2019-05-21T04:39:17.332Z,86.49
2019-05-21T04:42:07.258Z,86.53
2019-05-21T04:44:57.465Z,86.59
2019-05-21T04:47:47.404Z,86.59
2019-05-21T04:50:36.836Z,86.44
2019-05-21T04:53:26.478Z,86.62
2019-05-21T04:56:16.362Z,86.69
2019-05-21T04:59:06.494Z,86.66
2019-05-21T05:01:56.408Z,86.71
2019-05-21T05:04:46.534Z,86.79
2019-05-21T05:07:36.365Z,86.77
2019-05-21T05:10:26.194Z,86.79
2019-05-21T05:13:17.566Z,86.91
2019-05-21T05:16:07.540Z,86.79
2019-05-21T05:18:57.367Z,86.73
2019-05-21T05:21:47.140Z,86.56
2019-05-21T05:24:37.356Z,86.73
2019-05-21T05:27:27.371Z,86.66
2019-05-21T05:30:18.158Z,85.91
2019-05-21T05:33:07.919Z,86.45
2019-05-21T05:35:58.194Z,86.00
2019-05-21T05:38:48.388Z,86.47
2019-05-21T05:41:38.352Z,86.54
2019-05-21T05:44:27.951Z,86.30
2019-05-21T05:47:18.034Z,86.11
2019-05-21T05:50:10.360Z,86.37
2019-05-21T05:53:00.375Z,85.90
2019-05-21T05:55:50.361Z,86.33
2019-05-21T05:58:40.461Z,85.95
2019-05-21T06:01:32.302Z,86.01
2019-05-21T06:04:22.492Z,86.48
2019-05-21T06:07:12.423Z,86.44
2019-05-21T06:10:02.539Z,86.05
2019-05-21T06:12:53.520Z,86.11
2019-05-21T06:15:43.282Z,86.61
2019-05-21T06:18:35.500Z,86.25
2019-05-21T06:21:24.730Z,86.29
2019-05-21T06:24:15.044Z,84.81
2019-05-21T06:27:07.726Z,85.75
2019-05-21T06:29:57.971Z,86.14
2019-05-21T06:32:47.873Z,86.05
2019-05-21T06:35:37.789Z,86.44
2019-05-21T06:38:27.757Z,85.93
2019-05-21T06:41:18.258Z,86.29
2019-05-21T06:44:08.503Z,86.04
2019-05-21T06:47:01.932Z,86.39
2019-05-21T06:49:51.525Z,85.82
2019-05-21T06:52:41.225Z,85.57
2019-05-21T06:55:31.024Z,85.30
2019-05-21T06:58:20.521Z,85.99
2019-05-21T07:01:10.627Z,86.07
2019-05-21T07:04:00.809Z,85.52
2019-05-21T07:06:51.387Z,85.19
2019-05-21T07:09:41.610Z,85.69
2019-05-21T07:12:31.530Z,85.96
2019-05-21T07:15:21.570Z,85.85
2019-05-21T07:18:12.793Z,85.38
2019-05-21T07:21:03.770Z,85.58
2019-05-21T07:23:53.805Z,85.73
2019-05-21T07:26:44.414Z,85.98
2019-05-21T07:29:46.182Z,85.75
2019-05-21T07:32:36.757Z,85.36
2019-05-21T07:35:26.676Z,85.70
2019-05-21T07:38:19.774Z,84.87
2019-05-21T07:41:09.378Z,85.16
2019-05-21T07:43:59.144Z,85.38
2019-05-21T07:46:49.871Z,86.00
2019-05-21T07:49:39.920Z,85.29
2019-05-21T07:52:30.520Z,85.22
2019-05-21T07:55:20.626Z,86.14
2019-05-21T07:58:10.417Z,85.03
2019-05-21T08:01:01.546Z,86.30
2019-05-21T08:03:53.536Z,86.31
2019-05-21T08:06:44.256Z,85.89
2019-05-21T08:09:34.160Z,84.86
2019-05-21T08:12:37.889Z,84.79
2019-05-21T08:15:16.828Z,85.35
2019-05-21T08:18:06.758Z,85.11
2019-05-21T08:20:56.295Z,85.56
2019-05-21T08:23:46.002Z,85.60
2019-05-21T08:26:35.838Z,85.82
2019-05-21T08:29:25.679Z,85.80
2019-05-21T08:32:15.675Z,86.60
2019-05-21T08:35:06.131Z,86.17
2019-05-21T08:37:55.913Z,85.29
2019-05-21T08:40:46.087Z,84.97
2019-05-21T08:43:36.354Z,85.03
2019-05-21T08:46:26.630Z,84.39
2019-05-21T08:49:16.987Z,83.98
2019-05-21T08:52:06.905Z,83.71
2019-05-21T08:54:56.815Z,84.46
2019-05-21T08:58:04.994Z,85.30
2019-05-21T09:00:39.026Z,84.74
2019-05-21T09:03:29.030Z,83.47
2019-05-21T09:06:19.231Z,84.48
2019-05-21T09:09:10.435Z,84.62
2019-05-21T09:12:00.489Z,84.74
2019-05-21T09:14:50.621Z,84.90
2019-05-21T09:17:40.637Z,84.11
2019-05-21T09:20:30.815Z,84.93
2019-05-21T09:23:20.671Z,85.75
2019-05-21T09:26:10.712Z,85.08
2019-05-21T09:29:00.737Z,85.70
2019-05-21T09:31:51.721Z,85.76
2019-05-21T09:34:48.580Z,83.66
2019-05-21T09:37:33.144Z,84.62
2019-05-21T09:40:25.439Z,83.38
2019-05-21T09:43:15.079Z,83.74
2019-05-21T09:46:05.598Z,83.97
2019-05-21T09:48:56.192Z,84.48
2019-05-21T09:51:46.610Z,83.94
2019-05-21T09:54:35.806Z,84.22
2019-05-21T09:57:34.937Z,83.98
2019-05-21T10:00:50.772Z,82.94
2019-05-21T10:03:42.954Z,83.19
2019-05-21T10:06:33.120Z,84.62
2019-05-21T10:09:23.619Z,83.77
2019-05-21T10:12:13.873Z,84.03
2019-05-21T10:15:04.395Z,83.25
2019-05-21T10:17:54.277Z,83.46
2019-05-21T10:20:44.511Z,84.18
2019-05-21T10:23:34.389Z,83.86
2019-05-21T10:26:25.802Z,84.55
2019-05-21T10:29:15.856Z,83.06
2019-05-21T10:32:05.396Z,83.04
2019-05-21T10:34:55.251Z,81.76
2019-05-21T10:37:54.479Z,80.11
2019-05-21T10:40:39.012Z,78.74
2019-05-21T10:43:29.078Z,76.32
2019-05-21T10:46:19.261Z,73.73
2019-05-21T10:49:09.469Z,73.05
2019-05-21T10:51:59.653Z,72.82
2019-05-21T10:54:49.895Z,71.49
2019-05-21T10:57:39.418Z,69.46
2019-05-21T11:00:30.170Z,72.18
2019-05-21T11:03:24.521Z,70.42
2019-05-21T11:06:14.715Z,70.01
2019-05-21T11:09:10.361Z,70.79
2019-05-21T11:12:00.683Z,70.19
2019-05-21T11:14:50.985Z,70.35
2019-05-21T11:17:53.607Z,70.03
2019-05-21T11:20:32.588Z,70.55
2019-05-21T11:23:23.501Z,70.56
2019-05-21T11:26:13.509Z,70.07
2019-05-21T11:29:03.590Z,71.75
2019-05-21T11:31:57.398Z,69.49
2019-05-21T11:34:45.627Z,69.08
2019-05-21T11:37:35.744Z,69.85
2019-05-21T11:40:26.578Z,67.68
2019-05-21T11:43:16.564Z,65.33
2019-05-21T11:46:06.914Z,66.41
2019-05-21T11:48:56.522Z,66.33
2019-05-21T11:51:46.478Z,63.62
2019-05-21T11:54:36.637Z,62.81
2019-05-21T11:57:26.215Z,62.59
2019-05-21T12:00:21.284Z,62.15
2019-05-21T12:03:09.181Z,60.97
2019-05-21T12:05:59.299Z,56.15
2019-05-21T12:08:56.712Z,52.47
2019-05-21T12:11:40.859Z,51.65
2019-05-21T12:14:31.438Z,49.17
2019-05-21T12:17:21.844Z,48.95
2019-05-21T12:20:14.186Z,49.09
2019-05-21T12:23:03.759Z,49.38
2019-05-21T12:25:53.951Z,50.52
2019-05-21T12:28:44.218Z,50.60
2019-05-21T12:31:34.408Z,50.53
2019-05-21T12:34:25.485Z,50.30
2019-05-21T12:37:15.556Z,49.15
2019-05-21T12:40:06.222Z,49.14
2019-05-21T12:42:56.384Z,49.35
2019-05-21T12:45:46.392Z,48.85
2019-05-21T12:48:36.261Z,48.86
2019-05-21T12:51:26.334Z,49.15
2019-05-21T12:54:16.526Z,47.96
2019-05-21T12:57:06.510Z,47.77
2019-05-21T12:59:57.086Z,47.69
2019-05-21T13:02:47.094Z,47.10
2019-05-21T13:05:36.788Z,46.60
2019-05-21T13:08:27.032Z,46.08
2019-05-21T13:11:17.273Z,45.47
2019-05-21T13:14:07.348Z,45.69
2019-05-21T13:16:57.152Z,45.22
2019-05-21T13:19:46.796Z,44.61
2019-05-21T13:22:36.670Z,44.54
2019-05-21T13:25:27.625Z,45.01
2019-05-21T13:28:17.386Z,45.02
2019-05-21T13:31:07.205Z,44.72
2019-05-21T13:33:58.111Z,43.79
2019-05-21T13:36:47.838Z,42.35
2019-05-21T13:39:49.336Z,42.22
2019-05-21T13:42:29.593Z,42.62
2019-05-21T13:45:20.997Z,42.69
2019-05-21T13:48:11.207Z,43.00
2019-05-21T13:51:01.385Z,43.76
2019-05-21T13:53:51.500Z,44.41
2019-05-21T13:56:42.038Z,44.08
2019-05-21T13:59:31.646Z,43.75
2019-05-21T14:02:21.473Z,44.04
2019-05-21T14:05:12.171Z,44.53
2019-05-21T14:08:01.849Z,43.49
2019-05-21T14:10:51.797Z,43.66
2019-05-21T14:13:42.308Z,43.89
2019-05-21T14:16:34.790Z,43.86
2019-05-21T14:19:24.262Z,43.50
2019-05-21T14:22:13.959Z,43.73
2019-05-21T14:25:04.269Z,43.21
2019-05-21T14:27:54.175Z,43.20
2019-05-21T14:30:44.495Z,43.09
2019-05-21T14:33:35.533Z,43.63
2019-05-21T14:36:25.628Z,43.65
2019-05-21T14:39:17.639Z,44.25
2019-05-21T14:42:07.431Z,44.06
2019-05-21T14:44:57.229Z,44.26
2019-05-21T14:47:47.156Z,43.58
2019-05-21T14:50:37.502Z,43.81
2019-05-21T14:53:27.658Z,44.61
2019-05-21T14:56:17.137Z,44.61
2019-05-21T14:59:07.350Z,44.26
2019-05-21T15:01:57.399Z,44.37
2019-05-21T15:04:47.577Z,44.64
2019-05-21T15:07:37.320Z,44.76
2019-05-21T15:10:27.147Z,45.57
2019-05-21T15:13:17.527Z,45.36
2019-05-21T15:16:08.006Z,45.33
2019-05-21T15:18:57.991Z,45.62
2019-05-21T15:21:52.064Z,45.82
2019-05-21T15:24:42.176Z,46.18
2019-05-21T15:27:32.080Z,45.73
2019-05-21T15:30:22.193Z,46.27
2019-05-21T15:33:11.984Z,46.64
2019-05-21T15:36:01.797Z,46.77
2019-05-21T15:38:51.545Z,46.87
2019-05-21T15:41:41.870Z,46.80
2019-05-21T15:44:32.189Z,46.55
2019-05-21T15:47:22.098Z,46.65
2019-05-21T15:50:12.202Z,46.71
2019-05-21T15:53:01.661Z,46.89
2019-05-21T15:55:51.726Z,46.86
2019-05-21T15:58:41.896Z,46.95
2019-05-21T16:01:31.371Z,47.13
2019-05-21T16:04:21.610Z,47.40
2019-05-21T16:07:11.383Z,47.53
2019-05-21T16:10:01.634Z,47.87
2019-05-21T16:12:54.338Z,47.97
2019-05-21T16:15:43.318Z,47.82
2019-05-21T16:18:33.319Z,47.76
2019-05-21T16:21:23.390Z,47.92
2019-05-21T16:24:13.501Z,48.15
2019-05-21T16:27:03.344Z,48.28
2019-05-21T16:29:53.058Z,47.88
2019-05-21T16:32:42.920Z,47.92
2019-05-21T16:35:33.536Z,47.87
2019-05-21T16:38:23.722Z,48.00
2019-05-21T16:41:13.543Z,48.44
2019-05-21T16:44:03.446Z,49.13
2019-05-21T16:46:52.989Z,49.70
2019-05-21T16:49:43.383Z,50.14
2019-05-21T16:52:32.722Z,50.84
2019-05-21T16:55:23.003Z,51.39
2019-05-21T16:58:13.310Z,51.72
2019-05-21T17:01:05.514Z,52.16
2019-05-21T17:03:59.785Z,52.80
2019-05-21T17:06:47.864Z,53.08
2019-05-21T17:09:38.119Z,53.43
2019-05-21T17:12:28.018Z,53.83
2019-05-21T17:15:17.727Z,54.03
2019-05-21T17:18:07.726Z,54.08
2019-05-21T17:20:57.806Z,54.45
2019-05-21T17:23:47.389Z,54.62
2019-05-21T17:26:37.726Z,54.76
2019-05-21T17:29:27.441Z,55.01
2019-05-21T17:32:17.987Z,55.21
2019-05-21T17:35:08.675Z,55.56
2019-05-21T17:37:57.856Z,55.90
2019-05-21T17:40:47.292Z,56.01
2019-05-21T17:43:36.990Z,56.29
2019-05-21T17:46:26.418Z,56.47
2019-05-21T17:49:16.440Z,56.83
2019-05-21T17:52:06.858Z,56.93
2019-05-21T17:54:57.719Z,57.07
2019-05-21T17:57:53.028Z,57.17
2019-05-21T18:00:54.135Z,57.29
2019-05-21T18:03:45.109Z,57.56
2019-05-21T18:06:34.711Z,57.54
2019-05-21T18:09:25.936Z,57.80
2019-05-21T18:12:31.183Z,57.99
2019-05-21T18:15:11.401Z,58.01
2019-05-21T18:18:02.709Z,58.06
2019-05-21T18:20:53.022Z,58.23
2019-05-21T18:23:42.733Z,58.23
2019-05-21T18:26:32.482Z,58.33
2019-05-21T18:29:22.801Z,58.45
2019-05-21T18:32:13.965Z,58.56
2019-05-21T18:35:04.765Z,58.80
2019-05-21T18:37:55.166Z,58.79
2019-05-21T18:40:45.954Z,58.94
2019-05-21T18:43:36.620Z,58.95
2019-05-21T18:46:26.152Z,59.19
2019-05-21T18:49:15.661Z,59.21
2019-05-21T18:52:06.211Z,59.57
2019-05-21T18:54:56.192Z,59.30
2019-05-21T18:57:46.070Z,59.46
2019-05-21T19:00:36.261Z,59.49
2019-05-21T19:03:26.307Z,59.46
2019-05-21T19:06:16.139Z,59.83
2019-05-21T19:09:07.623Z,59.73
2019-05-21T19:11:57.869Z,60.09
2019-05-21T19:14:47.877Z,60.13
2019-05-21T19:17:37.887Z,60.17
2019-05-21T19:20:27.753Z,60.19
2019-05-21T19:23:17.947Z,60.28
2019-05-21T19:26:08.297Z,60.23
2019-05-21T19:28:58.359Z,60.16
2019-05-21T19:31:49.424Z,60.18
2019-05-21T19:34:39.166Z,60.18
2019-05-21T19:37:29.396Z,60.28
2019-05-21T19:40:19.733Z,60.29
2019-05-21T19:43:09.891Z,60.32
2019-05-21T19:45:59.614Z,60.39
2019-05-21T19:48:50.175Z,60.27
2019-05-21T19:51:40.054Z,60.40
2019-05-21T19:54:29.888Z,60.33
2019-05-21T19:57:21.708Z,60.36
2019-05-21T20:00:13.080Z,60.39
2019-05-21T20:03:03.350Z,60.42
2019-05-21T20:05:53.496Z,60.54
2019-05-21T20:08:45.713Z,60.64
2019-05-21T20:11:35.412Z,60.73
2019-05-21T20:14:25.548Z,60.76
2019-05-21T20:17:16.279Z,60.91
2019-05-21T20:20:08.354Z,61.04
2019-05-21T20:22:59.071Z,61.00
2019-05-21T20:25:56.428Z,61.14
2019-05-21T20:28:42.380Z,61.19
2019-05-21T20:31:32.300Z,61.26
2019-05-21T20:34:23.847Z,61.46
2019-05-21T20:37:18.778Z,61.35
2019-05-21T20:40:10.812Z,61.40
2019-05-21T20:43:01.121Z,61.33
2019-05-21T20:45:51.785Z,61.31
2019-05-21T20:48:42.879Z,61.32
2019-05-21T20:51:34.150Z,61.20
2019-05-21T20:54:26.216Z,61.22
2019-05-21T20:57:17.758Z,61.25
2019-05-21T21:00:10.939Z,61.26
2019-05-21T21:03:02.297Z,61.54
2019-05-21T21:05:53.906Z,61.45
2019-05-21T21:08:46.864Z,61.40
2019-05-21T21:11:37.569Z,61.33
2019-05-21T21:14:28.710Z,61.29
2019-05-21T21:17:19.419Z,61.28
2019-05-21T21:20:10.707Z,61.41
2019-05-21T21:23:02.053Z,61.37
2019-05-21T21:25:52.681Z,61.38
2019-05-21T21:28:42.555Z,61.32
2019-05-21T21:31:32.698Z,61.46
2019-05-21T21:34:23.281Z,61.40
2019-05-21T21:37:13.744Z,61.42
2019-05-21T21:40:05.892Z,61.52
2019-05-21T21:42:55.813Z,61.53
2019-05-21T21:45:46.011Z,61.65
2019-05-21T21:48:36.300Z,61.69
2019-05-21T21:51:26.844Z,61.65
2019-05-21T21:54:17.084Z,61.76
2019-05-21T21:57:07.772Z,61.85
2019-05-21T21:59:57.945Z,61.84
2019-05-21T22:02:47.351Z,62.00
2019-05-21T22:05:38.008Z,62.00
2019-05-21T22:08:28.406Z,62.21
2019-05-21T22:11:18.281Z,62.14
2019-05-21T22:14:07.683Z,62.09
2019-05-21T22:16:57.916Z,62.11
2019-05-21T22:19:48.117Z,62.12
2019-05-21T22:22:37.503Z,62.25
2019-05-21T22:25:27.610Z,62.29
2019-05-21T22:28:18.324Z,62.39
2019-05-21T22:31:08.515Z,62.50
2019-05-21T22:33:58.532Z,62.50
2019-05-21T22:36:48.736Z,62.66
2019-05-21T22:39:40.035Z,62.64
2019-05-21T22:42:32.068Z,62.69
2019-05-21T22:45:22.909Z,62.70
2019-05-21T22:48:13.327Z,62.73
2019-05-21T22:51:04.468Z,62.84
2019-05-21T22:53:54.214Z,62.86
2019-05-21T22:56:44.224Z,62.87
2019-05-21T22:59:33.968Z,62.80
2019-05-21T23:02:28.014Z,62.75
2019-05-21T23:05:18.064Z,62.71
2019-05-21T23:08:08.761Z,62.71
2019-05-21T23:10:59.164Z,62.74
2019-05-21T23:13:49.257Z,62.71
2019-05-21T23:16:40.205Z,62.77
2019-05-21T23:19:31.821Z,62.79
2019-05-21T23:22:31.460Z,62.72
2019-05-21T23:25:22.339Z,62.78
2019-05-21T23:28:13.687Z,62.83
2019-05-21T23:31:05.374Z,62.84
2019-05-21T23:33:58.692Z,62.82
2019-05-21T23:36:51.602Z,62.80
2019-05-21T23:39:42.129Z,62.97
2019-05-21T23:42:33.381Z,63.08
2019-05-21T23:45:23.267Z,63.18
2019-05-21T23:48:14.440Z,63.20
2019-05-21T23:51:04.391Z,63.34
2019-05-21T23:53:55.173Z,63.68
2019-05-21T23:56:45.264Z,63.69
2019-05-21T23:59:35.927Z,63.85
